sensor_id;sensor_type;location;lat;lon;timestamp;pressure;altitude;pressure_sealevel;temperature;humidity
67931;BME280;63902;52.000;5.954;2023-07-16T00:00:50;100479.88;;;16.50;100.00
67931;BME280;63902;52.000;5.954;2023-07-16T00:01:50;100488.66;;;16.52;100.00
67931;BME280;63902;52.000;5.954;2023-07-16T00:02:51;100487.03;;;16.50;100.00
67931;BME280;63902;52.000;5.954;2023-07-16T00:03:51;100492.63;;;16.47;100.00
67931;BME280;63902;52.000;5.954;2023-07-16T00:04:52;100483.06;;;16.43;100.00
67931;BME280;63902;52.000;5.954;2023-07-16T00:05:52;100482.22;;;16.42;100.00
67931;BME280;63902;52.000;5.954;2023-07-16T00:06:53;100489.50;;;16.40;100.00
67931;BME280;63902;52.000;5.954;2023-07-16T00:07:53;100476.34;;;16.37;100.00
67931;BME280;63902;52.000;5.954;2023-07-16T00:08:54;100481.81;;;16.36;100.00
67931;BME280;63902;52.000;5.954;2023-07-16T00:09:54;100481.28;;;16.30;100.00
67931;BME280;63902;52.000;5.954;2023-07-16T00:10:55;100478.69;;;16.29;100.00
67931;BME280;63902;52.000;5.954;2023-07-16T00:11:56;100487.78;;;16.26;100.00
67931;BME280;63902;52.000;5.954;2023-07-16T00:12:56;100488.00;;;16.23;100.00
67931;BME280;63902;52.000;5.954;2023-07-16T00:13:57;100489.94;;;16.21;100.00
67931;BME280;63902;52.000;5.954;2023-07-16T00:14:59;100496.34;;;16.19;99.65
67931;BME280;63902;52.000;5.954;2023-07-16T00:15:59;100492.09;;;16.16;99.52
67931;BME280;63902;52.000;5.954;2023-07-16T00:17:00;100495.63;;;16.17;99.48
67931;BME280;63902;52.000;5.954;2023-07-16T00:18:00;100494.88;;;16.15;99.41
67931;BME280;63902;52.000;5.954;2023-07-16T00:19:01;100482.22;;;16.04;99.39
67931;BME280;63902;52.000;5.954;2023-07-16T00:20:01;100497.84;;;16.10;99.46
67931;BME280;63902;52.000;5.954;2023-07-16T00:21:02;100498.06;;;16.07;99.90
67931;BME280;63902;52.000;5.954;2023-07-16T00:22:03;100500.88;;;16.05;99.96
67931;BME280;63902;52.000;5.954;2023-07-16T00:23:03;100487.56;;;16.04;99.77
67931;BME280;63902;52.000;5.954;2023-07-16T00:24:04;100504.25;;;16.07;99.60
67931;BME280;63902;52.000;5.954;2023-07-16T00:25:06;100500.00;;;16.05;99.94
67931;BME280;63902;52.000;5.954;2023-07-16T00:26:06;100505.38;;;16.05;100.00
67931;BME280;63902;52.000;5.954;2023-07-16T00:27:07;100503.63;;;16.04;100.00
67931;BME280;63902;52.000;5.954;2023-07-16T00:28:07;100508.22;;;16.02;100.00
67931;BME280;63902;52.000;5.954;2023-07-16T00:29:08;100495.94;;;15.99;100.00
67931;BME280;63902;52.000;5.954;2023-07-16T00:30:10;100496.66;;;16.01;100.00
67931;BME280;63902;52.000;5.954;2023-07-16T00:31:11;100486.69;;;15.91;100.00
67931;BME280;63902;52.000;5.954;2023-07-16T00:32:12;100491.19;;;15.90;100.00
67931;BME280;63902;52.000;5.954;2023-07-16T00:33:12;100507.72;;;15.97;100.00
67931;BME280;63902;52.000;5.954;2023-07-16T00:34:13;100500.63;;;15.96;100.00
67931;BME280;63902;52.000;5.954;2023-07-16T00:35:14;100503.28;;;15.96;100.00
67931;BME280;63902;52.000;5.954;2023-07-16T00:36:14;100504.16;;;15.96;100.00
67931;BME280;63902;52.000;5.954;2023-07-16T00:37:15;100505.88;;;15.97;100.00
67931;BME280;63902;52.000;5.954;2023-07-16T00:38:16;100497.84;;;15.97;100.00
67931;BME280;63902;52.000;5.954;2023-07-16T00:39:17;100504.06;;;15.98;100.00
67931;BME280;63902;52.000;5.954;2023-07-16T00:40:18;100501.59;;;15.95;100.00
67931;BME280;63902;52.000;5.954;2023-07-16T00:41:18;100490.56;;;15.86;100.00
67931;BME280;63902;52.000;5.954;2023-07-16T00:42:19;100499.13;;;15.92;100.00
67931;BME280;63902;52.000;5.954;2023-07-16T00:43:19;100484.78;;;15.93;100.00
67931;BME280;63902;52.000;5.954;2023-07-16T00:44:21;100497.22;;;15.94;100.00
67931;BME280;63902;52.000;5.954;2023-07-16T00:45:23;100502.66;;;15.92;100.00
67931;BME280;63902;52.000;5.954;2023-07-16T00:46:24;100505.34;;;15.92;100.00
67931;BME280;63902;52.000;5.954;2023-07-16T00:47:25;100496.66;;;15.88;100.00
67931;BME280;63902;52.000;5.954;2023-07-16T00:48:26;100497.81;;;15.84;100.00
67931;BME280;63902;52.000;5.954;2023-07-16T00:49:27;100483.91;;;15.79;100.00
67931;BME280;63902;52.000;5.954;2023-07-16T00:50:29;100496.00;;;15.85;100.00
67931;BME280;63902;52.000;5.954;2023-07-16T00:51:29;100498.69;;;15.85;100.00
67931;BME280;63902;52.000;5.954;2023-07-16T00:52:30;100499.56;;;15.85;100.00
67931;BME280;63902;52.000;5.954;2023-07-16T00:53:31;100496.13;;;15.83;100.00
67931;BME280;63902;52.000;5.954;2023-07-16T00:54:32;100498.81;;;15.83;100.00
67931;BME280;63902;52.000;5.954;2023-07-16T00:55:33;100505.97;;;15.83;100.00
67931;BME280;63902;52.000;5.954;2023-07-16T00:56:35;100501.69;;;15.80;100.00
67931;BME280;63902;52.000;5.954;2023-07-16T00:57:38;100484.34;;;15.73;100.00
67931;BME280;63902;52.000;5.954;2023-07-16T00:58:38;100499.94;;;15.79;100.00
67931;BME280;63902;52.000;5.954;2023-07-16T00:59:39;100501.91;;;15.77;100.00
67931;BME280;63902;52.000;5.954;2023-07-16T01:00:41;100488.75;;;15.74;100.00
67931;BME280;63902;52.000;5.954;2023-07-16T01:01:42;100492.91;;;15.78;100.00
67931;BME280;63902;52.000;5.954;2023-07-16T01:02:42;100500.06;;;15.78;100.00
67931;BME280;63902;52.000;5.954;2023-07-16T01:03:43;100500.06;;;15.78;100.00
67931;BME280;63902;52.000;5.954;2023-07-16T01:04:44;100496.53;;;15.77;100.00
67931;BME280;63902;52.000;5.954;2023-07-16T01:05:49;100489.47;;;15.76;100.00
67931;BME280;63902;52.000;5.954;2023-07-16T01:06:55;100495.03;;;15.73;100.00
67931;BME280;63902;52.000;5.954;2023-07-16T01:08:02;100495.03;;;15.73;100.00
67931;BME280;63902;52.000;5.954;2023-07-16T01:09:07;100496.75;;;15.74;100.00
67931;BME280;63902;52.000;5.954;2023-07-16T01:10:08;100493.13;;;15.75;100.00
67931;BME280;63902;52.000;5.954;2023-07-16T01:11:09;100496.34;;;15.80;100.00
67931;BME280;63902;52.000;5.954;2023-07-16T01:12:11;100493.44;;;15.83;100.00
67931;BME280;63902;52.000;5.954;2023-07-16T01:13:13;100493.66;;;15.93;100.00
67931;BME280;63902;52.000;5.954;2023-07-16T01:14:16;100504.28;;;15.95;99.43
67931;BME280;63902;52.000;5.954;2023-07-16T01:15:17;100495.50;;;15.93;99.49
67931;BME280;63902;52.000;5.954;2023-07-16T01:16:19;100491.31;;;15.88;98.10
67931;BME280;63902;52.000;5.954;2023-07-16T01:17:20;100497.09;;;15.95;97.99
67931;BME280;63902;52.000;5.954;2023-07-16T01:18:21;100485.31;;;15.85;98.00
67931;BME280;63902;52.000;5.954;2023-07-16T01:19:21;100493.03;;;15.89;97.76
67931;BME280;63902;52.000;5.954;2023-07-16T01:20:22;100491.97;;;15.92;97.80
67931;BME280;63902;52.000;5.954;2023-07-16T01:21:23;100497.41;;;15.91;97.61
67931;BME280;63902;52.000;5.954;2023-07-16T01:23:00;100503.84;;;15.88;97.83
67931;BME280;63902;52.000;5.954;2023-07-16T01:24:22;100480.38;;;15.79;97.57
67931;BME280;63902;52.000;5.954;2023-07-16T01:25:43;100492.69;;;15.81;97.38
67931;BME280;63902;52.000;5.954;2023-07-16T01:27:02;100498.25;;;15.78;97.36
67931;BME280;63902;52.000;5.954;2023-07-16T01:28:34;100493.31;;;15.72;97.30
67931;BME280;63902;52.000;5.954;2023-07-16T01:29:41;100488.94;;;15.71;97.64
67931;BME280;63902;52.000;5.954;2023-07-16T01:30:44;100498.47;;;15.75;97.41
67931;BME280;63902;52.000;5.954;2023-07-16T01:31:46;100495.03;;;15.73;97.29
67931;BME280;63902;52.000;5.954;2023-07-16T01:32:49;100489.69;;;15.73;97.21
67931;BME280;63902;52.000;5.954;2023-07-16T01:33:51;100491.81;;;15.68;97.27
67931;BME280;63902;52.000;5.954;2023-07-16T01:34:52;100498.38;;;15.62;97.63
67931;BME280;63902;52.000;5.954;2023-07-16T01:35:54;100499.66;;;15.57;97.92
67931;BME280;63902;52.000;5.954;2023-07-16T01:36:55;100492.81;;;15.53;98.28
67931;BME280;63902;52.000;5.954;2023-07-16T01:37:55;100499.88;;;15.54;98.34
67931;BME280;63902;52.000;5.954;2023-07-16T01:38:56;100500.91;;;15.51;98.55
67931;BME280;63902;52.000;5.954;2023-07-16T01:39:57;100497.72;;;15.46;98.71
67931;BME280;63902;52.000;5.954;2023-07-16T01:40:58;100494.38;;;15.42;98.94
67931;BME280;63902;52.000;5.954;2023-07-16T01:41:59;100500.69;;;15.41;99.23
67931;BME280;63902;52.000;5.954;2023-07-16T01:42:59;100507.19;;;15.37;99.22
67931;BME280;63902;52.000;5.954;2023-07-16T01:44:00;100510.41;;;15.42;98.95
67931;BME280;63902;52.000;5.954;2023-07-16T01:45:02;100507.75;;;15.42;98.64
67931;BME280;63902;52.000;5.954;2023-07-16T01:46:03;100509.69;;;15.40;98.26
67931;BME280;63902;52.000;5.954;2023-07-16T01:47:06;100507.94;;;15.39;98.05
67931;BME280;63902;52.000;5.954;2023-07-16T01:48:14;100501.00;;;15.37;98.01
67931;BME280;63902;52.000;5.954;2023-07-16T01:49:21;100511.88;;;15.34;97.92
67931;BME280;63902;52.000;5.954;2023-07-16T01:50:22;100514.69;;;15.32;98.05
67931;BME280;63902;52.000;5.954;2023-07-16T01:51:22;100499.59;;;15.31;98.04
67931;BME280;63902;52.000;5.954;2023-07-16T01:52:23;100504.19;;;15.29;98.39
67931;BME280;63902;52.000;5.954;2023-07-16T01:53:23;100505.25;;;15.27;98.44
67931;BME280;63902;52.000;5.954;2023-07-16T01:54:24;100497.22;;;15.27;98.18
67931;BME280;63902;52.000;5.954;2023-07-16T01:55:25;100496.56;;;15.23;97.91
67931;BME280;63902;52.000;5.954;2023-07-16T01:56:25;100503.63;;;15.24;97.97
67931;BME280;63902;52.000;5.954;2023-07-16T01:57:26;100503.84;;;15.21;98.08
67931;BME280;63902;52.000;5.954;2023-07-16T01:58:26;100501.25;;;15.19;98.88
67931;BME280;63902;52.000;5.954;2023-07-16T01:59:27;100502.41;;;15.15;98.74
67931;BME280;63902;52.000;5.954;2023-07-16T02:00:29;100489.06;;;15.15;98.72
67931;BME280;63902;52.000;5.954;2023-07-16T02:01:29;100494.50;;;15.14;98.77
67931;BME280;63902;52.000;5.954;2023-07-16T02:02:30;100495.47;;;15.13;98.40
67931;BME280;63902;52.000;5.954;2023-07-16T02:03:30;100491.25;;;15.09;98.50
67931;BME280;63902;52.000;5.954;2023-07-16T02:04:31;100497.44;;;15.09;98.60
67931;BME280;63902;52.000;5.954;2023-07-16T02:05:31;100490.50;;;15.07;98.28
67931;BME280;63902;52.000;5.954;2023-07-16T02:06:32;100500.53;;;15.03;98.61
67931;BME280;63902;52.000;5.954;2023-07-16T02:07:32;100490.16;;;14.98;99.05
67931;BME280;63902;52.000;5.954;2023-07-16T02:08:33;100496.44;;;14.97;99.24
67931;BME280;63902;52.000;5.954;2023-07-16T02:09:33;100498.19;;;14.98;98.82
67931;BME280;63902;52.000;5.954;2023-07-16T02:10:34;100501.59;;;15.00;98.55
67931;BME280;63902;52.000;5.954;2023-07-16T02:11:35;100502.44;;;15.01;98.66
67931;BME280;63902;52.000;5.954;2023-07-16T02:12:35;100497.28;;;14.98;98.38
67931;BME280;63902;52.000;5.954;2023-07-16T02:13:36;100499.69;;;15.03;98.31
67931;BME280;63902;52.000;5.954;2023-07-16T02:14:36;100498.91;;;15.00;98.18
67931;BME280;63902;52.000;5.954;2023-07-16T02:15:38;100500.84;;;14.98;98.02
67931;BME280;63902;52.000;5.954;2023-07-16T02:16:39;100501.78;;;14.97;97.49
67931;BME280;63902;52.000;5.954;2023-07-16T02:17:39;100499.09;;;14.97;97.41
67931;BME280;63902;52.000;5.954;2023-07-16T02:18:40;100500.09;;;14.96;97.68
67931;BME280;63902;52.000;5.954;2023-07-16T02:19:40;100501.91;;;14.96;97.45
67931;BME280;63902;52.000;5.954;2023-07-16T02:20:41;100497.28;;;14.98;96.93
67931;BME280;63902;52.000;5.954;2023-07-16T02:21:41;100508.09;;;14.96;96.93
67931;BME280;63902;52.000;5.954;2023-07-16T02:22:42;100497.41;;;14.96;95.93
67931;BME280;63902;52.000;5.954;2023-07-16T02:23:42;100500.72;;;15.00;96.35
67931;BME280;63902;52.000;5.954;2023-07-16T02:24:43;100495.31;;;15.02;95.97
67931;BME280;63902;52.000;5.954;2023-07-16T02:25:43;100500.84;;;14.98;95.63
67931;BME280;63902;52.000;5.954;2023-07-16T02:26:44;100500.09;;;14.96;95.67
67931;BME280;63902;52.000;5.954;2023-07-16T02:27:44;100498.53;;;14.92;96.33
67931;BME280;63902;52.000;5.954;2023-07-16T02:28:45;100497.31;;;14.84;96.44
67931;BME280;63902;52.000;5.954;2023-07-16T02:29:45;100498.19;;;14.84;96.65
67931;BME280;63902;52.000;5.954;2023-07-16T02:30:48;100507.91;;;14.85;97.17
67931;BME280;63902;52.000;5.954;2023-07-16T02:31:49;100505.44;;;14.82;96.83
67931;BME280;63902;52.000;5.954;2023-07-16T02:32:50;100508.31;;;14.79;97.22
67931;BME280;63902;52.000;5.954;2023-07-16T02:33:50;100505.84;;;14.76;97.51
67931;BME280;63902;52.000;5.954;2023-07-16T02:34:51;100506.97;;;14.72;97.85
67931;BME280;63902;52.000;5.954;2023-07-16T02:35:51;100512.88;;;14.77;97.67
67931;BME280;63902;52.000;5.954;2023-07-16T02:36:52;100497.16;;;14.72;97.40
67931;BME280;63902;52.000;5.954;2023-07-16T02:37:52;100496.09;;;14.75;96.92
67931;BME280;63902;52.000;5.954;2023-07-16T02:38:53;100511.53;;;14.84;96.22
67931;BME280;63902;52.000;5.954;2023-07-16T02:39:53;100523.38;;;14.80;97.10
67931;BME280;63902;52.000;5.954;2023-07-16T02:40:54;100512.13;;;14.75;96.96
67931;BME280;63902;52.000;5.954;2023-07-16T02:41:54;100521.19;;;14.72;96.98
67931;BME280;63902;52.000;5.954;2023-07-16T02:42:55;100517.84;;;14.69;97.89
67931;BME280;63902;52.000;5.954;2023-07-16T02:43:59;100516.16;;;14.68;97.47
67931;BME280;63902;52.000;5.954;2023-07-16T02:45:00;100514.22;;;14.70;97.25
67931;BME280;63902;52.000;5.954;2023-07-16T02:46:02;100524.16;;;14.68;97.43
67931;BME280;63902;52.000;5.954;2023-07-16T02:47:03;100522.53;;;14.65;97.40
67931;BME280;63902;52.000;5.954;2023-07-16T02:48:05;100528.94;;;14.63;97.50
67931;BME280;63902;52.000;5.954;2023-07-16T02:49:05;100526.34;;;14.61;97.54
67931;BME280;63902;52.000;5.954;2023-07-16T02:50:07;100529.00;;;14.61;97.59
67931;BME280;63902;52.000;5.954;2023-07-16T02:51:07;100524.63;;;14.60;97.68
67931;BME280;63902;52.000;5.954;2023-07-16T02:52:08;100518.53;;;14.58;97.59
67931;BME280;63902;52.000;5.954;2023-07-16T02:53:09;100522.34;;;14.54;97.84
67931;BME280;63902;52.000;5.954;2023-07-16T02:54:09;100519.94;;;14.49;97.97
67931;BME280;63902;52.000;5.954;2023-07-16T02:55:10;100514.00;;;14.44;98.22
67931;BME280;63902;52.000;5.954;2023-07-16T02:56:10;100517.84;;;14.40;98.58
67931;BME280;63902;52.000;5.954;2023-07-16T02:57:11;100518.88;;;14.38;98.87
67931;BME280;63902;52.000;5.954;2023-07-16T02:58:12;100514.41;;;14.38;98.96
67931;BME280;63902;52.000;5.954;2023-07-16T02:59:12;100515.25;;;14.39;98.94
67931;BME280;63902;52.000;5.954;2023-07-16T03:00:13;100520.59;;;14.39;98.88
67931;BME280;63902;52.000;5.954;2023-07-16T03:01:15;100518.03;;;14.37;99.13
67931;BME280;63902;52.000;5.954;2023-07-16T03:02:16;100507.56;;;14.34;98.99
67931;BME280;63902;52.000;5.954;2023-07-16T03:03:16;100517.25;;;14.35;99.15
67931;BME280;63902;52.000;5.954;2023-07-16T03:04:17;100511.06;;;14.35;99.23
67931;BME280;63902;52.000;5.954;2023-07-16T03:05:17;100513.81;;;14.33;99.27
67931;BME280;63902;52.000;5.954;2023-07-16T03:06:18;100510.38;;;14.31;99.49
67931;BME280;63902;52.000;5.954;2023-07-16T03:07:19;100506.97;;;14.29;99.26
67931;BME280;63902;52.000;5.954;2023-07-16T03:08:19;100509.13;;;14.22;99.34
67931;BME280;63902;52.000;5.954;2023-07-16T03:09:20;100517.72;;;14.27;99.42
67931;BME280;63902;52.000;5.954;2023-07-16T03:10:21;100514.19;;;14.27;99.29
67931;BME280;63902;52.000;5.954;2023-07-16T03:11:21;100513.44;;;14.25;99.43
67931;BME280;63902;52.000;5.954;2023-07-16T03:12:22;100511.63;;;14.25;99.72
67931;BME280;63902;52.000;5.954;2023-07-16T03:13:22;100502.94;;;14.22;99.56
67931;BME280;63902;52.000;5.954;2023-07-16T03:14:23;100516.00;;;14.26;99.50
67931;BME280;63902;52.000;5.954;2023-07-16T03:15:23;100510.69;;;14.26;99.67
67931;BME280;63902;52.000;5.954;2023-07-16T03:16:25;100504.56;;;14.24;99.63
67931;BME280;63902;52.000;5.954;2023-07-16T03:17:26;100509.84;;;14.26;99.51
67931;BME280;63902;52.000;5.954;2023-07-16T03:18:28;100491.69;;;14.17;99.88
67931;BME280;63902;52.000;5.954;2023-07-16T03:19:29;100510.69;;;14.26;99.79
67931;BME280;63902;52.000;5.954;2023-07-16T03:20:29;100502.56;;;14.28;100.00
67931;BME280;63902;52.000;5.954;2023-07-16T03:21:30;100513.25;;;14.28;100.00
67931;BME280;63902;52.000;5.954;2023-07-16T03:22:30;100511.72;;;14.24;99.91
67931;BME280;63902;52.000;5.954;2023-07-16T03:23:31;100513.44;;;14.25;99.71
67931;BME280;63902;52.000;5.954;2023-07-16T03:24:32;100521.44;;;14.25;99.64
67931;BME280;63902;52.000;5.954;2023-07-16T03:25:32;100518.09;;;14.21;99.75
67931;BME280;63902;52.000;5.954;2023-07-16T03:26:33;100520.59;;;14.24;100.00
67931;BME280;63902;52.000;5.954;2023-07-16T03:27:33;100522.41;;;14.24;100.00
67931;BME280;63902;52.000;5.954;2023-07-16T03:28:34;100520.69;;;14.23;99.86
67931;BME280;63902;52.000;5.954;2023-07-16T03:29:34;100520.69;;;14.23;99.99
67931;BME280;63902;52.000;5.954;2023-07-16T03:30:35;100532.88;;;14.27;100.00
67931;BME280;63902;52.000;5.954;2023-07-16T03:31:37;100519.25;;;14.31;100.00
67931;BME280;63902;52.000;5.954;2023-07-16T03:32:37;100527.81;;;14.37;100.00
67931;BME280;63902;52.000;5.954;2023-07-16T03:33:38;100519.72;;;14.38;99.94
67931;BME280;63902;52.000;5.954;2023-07-16T03:34:38;100517.00;;;14.40;100.00
67931;BME280;63902;52.000;5.954;2023-07-16T03:35:39;100519.53;;;14.41;100.00
67931;BME280;63902;52.000;5.954;2023-07-16T03:36:39;100527.16;;;14.47;100.00
67931;BME280;63902;52.000;5.954;2023-07-16T03:37:40;100524.28;;;14.50;99.74
67931;BME280;63902;52.000;5.954;2023-07-16T03:38:40;100522.44;;;14.52;100.00
67931;BME280;63902;52.000;5.954;2023-07-16T03:39:41;100522.72;;;14.62;99.91
67931;BME280;63902;52.000;5.954;2023-07-16T03:40:42;100524.44;;;14.63;99.07
67931;BME280;63902;52.000;5.954;2023-07-16T03:41:43;100521.69;;;14.65;99.21
67931;BME280;63902;52.000;5.954;2023-07-16T03:42:43;100504.53;;;14.54;98.95
67931;BME280;63902;52.000;5.954;2023-07-16T03:43:44;100523.13;;;14.70;98.61
67931;BME280;63902;52.000;5.954;2023-07-16T03:44:45;100529.50;;;14.68;98.75
67931;BME280;63902;52.000;5.954;2023-07-16T03:45:45;100533.94;;;14.67;98.26
67931;BME280;63902;52.000;5.954;2023-07-16T03:46:47;100534.91;;;14.66;98.37
67931;BME280;63902;52.000;5.954;2023-07-16T03:47:48;100527.38;;;14.59;98.06
67931;BME280;63902;52.000;5.954;2023-07-16T03:48:48;100534.16;;;14.64;98.34
67931;BME280;63902;52.000;5.954;2023-07-16T03:49:49;100551.97;;;14.64;98.53
67931;BME280;63902;52.000;5.954;2023-07-16T03:50:49;100545.72;;;14.65;98.76
67931;BME280;63902;52.000;5.954;2023-07-16T03:51:50;100540.91;;;14.70;98.18
67931;BME280;63902;52.000;5.954;2023-07-16T03:52:50;100549.88;;;14.69;98.15
67931;BME280;63902;52.000;5.954;2023-07-16T03:53:51;100552.63;;;14.67;98.31
67931;BME280;63902;52.000;5.954;2023-07-16T03:54:52;100542.84;;;14.68;98.32
67931;BME280;63902;52.000;5.954;2023-07-16T03:55:52;100543.78;;;14.67;98.08
67931;BME280;63902;52.000;5.954;2023-07-16T03:56:53;100553.59;;;14.66;98.01
67931;BME280;63902;52.000;5.954;2023-07-16T03:57:54;100552.75;;;14.66;98.76
67931;BME280;63902;52.000;5.954;2023-07-16T03:58:55;100554.38;;;14.68;98.15
67931;BME280;63902;52.000;5.954;2023-07-16T03:59:55;100545.31;;;14.71;97.33
67931;BME280;63902;52.000;5.954;2023-07-16T04:00:56;100552.47;;;14.70;97.38
67931;BME280;63902;52.000;5.954;2023-07-16T04:01:58;100549.69;;;14.72;97.90
67931;BME280;63902;52.000;5.954;2023-07-16T04:02:58;100545.91;;;14.76;97.59
67931;BME280;63902;52.000;5.954;2023-07-16T04:03:59;100549.31;;;14.78;96.97
67931;BME280;63902;52.000;5.954;2023-07-16T04:04:59;100550.06;;;14.80;96.70
67931;BME280;63902;52.000;5.954;2023-07-16T04:06:03;100549.09;;;14.81;96.83
67931;BME280;63902;52.000;5.954;2023-07-16T04:07:04;100552.66;;;14.82;96.42
67931;BME280;63902;52.000;5.954;2023-07-16T04:08:05;100553.59;;;14.81;96.37
67931;BME280;63902;52.000;5.954;2023-07-16T04:09:05;100548.66;;;14.74;96.50
67931;BME280;63902;52.000;5.954;2023-07-16T04:10:07;100555.03;;;14.86;96.32
67931;BME280;63902;52.000;5.954;2023-07-16T04:11:08;100564.38;;;14.93;95.16
67931;BME280;63902;52.000;5.954;2023-07-16T04:12:08;100559.69;;;14.97;94.66
67931;BME280;63902;52.000;5.954;2023-07-16T04:13:09;100559.88;;;14.94;94.99
67931;BME280;63902;52.000;5.954;2023-07-16T04:14:09;100558.25;;;14.91;94.73
67931;BME280;63902;52.000;5.954;2023-07-16T04:15:10;100560.28;;;14.88;95.09
67931;BME280;63902;52.000;5.954;2023-07-16T04:16:10;100565.69;;;14.86;95.28
67931;BME280;63902;52.000;5.954;2023-07-16T04:17:12;100568.56;;;14.83;95.56
67931;BME280;63902;52.000;5.954;2023-07-16T04:18:13;100569.53;;;14.82;95.33
67931;BME280;63902;52.000;5.954;2023-07-16T04:19:13;100569.63;;;14.81;96.07
67931;BME280;63902;52.000;5.954;2023-07-16T04:20:14;100568.84;;;14.78;95.64
67931;BME280;63902;52.000;5.954;2023-07-16T04:21:14;100564.19;;;14.82;96.81
67931;BME280;63902;52.000;5.954;2023-07-16T04:22:15;100570.19;;;14.86;96.64
67931;BME280;63902;52.000;5.954;2023-07-16T04:23:15;100564.09;;;14.84;96.37
67931;BME280;63902;52.000;5.954;2023-07-16T04:24:16;100572.00;;;14.85;96.11
67931;BME280;63902;52.000;5.954;2023-07-16T04:25:17;100572.94;;;14.84;96.04
67931;BME280;63902;52.000;5.954;2023-07-16T04:26:17;100575.44;;;14.87;97.74
67931;BME280;63902;52.000;5.954;2023-07-16T04:27:18;100576.19;;;14.89;97.53
67931;BME280;63902;52.000;5.954;2023-07-16T04:28:18;100567.44;;;14.87;96.89
67931;BME280;63902;52.000;5.954;2023-07-16T04:29:19;100568.50;;;14.85;96.74
67931;BME280;63902;52.000;5.954;2023-07-16T04:30:19;100566.88;;;14.82;96.77
67931;BME280;63902;52.000;5.954;2023-07-16T04:31:20;100584.19;;;14.89;98.00
67931;BME280;63902;52.000;5.954;2023-07-16T04:32:22;100580.41;;;14.93;96.68
67931;BME280;63902;52.000;5.954;2023-07-16T04:33:22;100576.97;;;14.91;96.64
67931;BME280;63902;52.000;5.954;2023-07-16T04:34:23;100579.81;;;14.88;96.74
67931;BME280;63902;52.000;5.954;2023-07-16T04:35:23;100585.06;;;14.90;97.59
67931;BME280;63902;52.000;5.954;2023-07-16T04:36:25;100584.19;;;14.89;97.02
67931;BME280;63902;52.000;5.954;2023-07-16T04:37:25;100584.31;;;14.88;97.15
67931;BME280;63902;52.000;5.954;2023-07-16T04:38:26;100583.25;;;14.90;96.88
67931;BME280;63902;52.000;5.954;2023-07-16T04:39:26;100586.78;;;14.91;96.78
67931;BME280;63902;52.000;5.954;2023-07-16T04:40:29;100584.88;;;14.93;96.84
67931;BME280;63902;52.000;5.954;2023-07-16T04:41:29;100581.13;;;14.95;97.18
67931;BME280;63902;52.000;5.954;2023-07-16T04:42:30;100590.03;;;14.96;96.78
67931;BME280;63902;52.000;5.954;2023-07-16T04:43:30;100596.78;;;15.02;96.44
67931;BME280;63902;52.000;5.954;2023-07-16T04:44:31;100593.16;;;15.03;96.13
67931;BME280;63902;52.000;5.954;2023-07-16T04:45:31;100590.50;;;15.03;96.00
67931;BME280;63902;52.000;5.954;2023-07-16T04:46:32;100592.19;;;15.04;95.56
67931;BME280;63902;52.000;5.954;2023-07-16T04:47:34;100588.00;;;14.99;95.29
67931;BME280;63902;52.000;5.954;2023-07-16T04:48:35;100592.31;;;15.02;95.25
67931;BME280;63902;52.000;5.954;2023-07-16T04:49:35;100592.19;;;15.04;95.33
67931;BME280;63902;52.000;5.954;2023-07-16T04:50:36;100585.91;;;15.05;94.86
67931;BME280;63902;52.000;5.954;2023-07-16T04:51:36;100586.00;;;15.03;94.54
67931;BME280;63902;52.000;5.954;2023-07-16T04:52:37;100599.28;;;15.05;94.33
67931;BME280;63902;52.000;5.954;2023-07-16T04:53:38;100596.50;;;15.06;93.97
67931;BME280;63902;52.000;5.954;2023-07-16T04:54:38;100598.41;;;15.04;93.64
67931;BME280;63902;52.000;5.954;2023-07-16T04:55:39;100596.69;;;15.03;93.69
67931;BME280;63902;52.000;5.954;2023-07-16T04:56:40;100597.53;;;15.04;93.67
67931;BME280;63902;52.000;5.954;2023-07-16T04:57:40;100600.13;;;15.05;93.45
67931;BME280;63902;52.000;5.954;2023-07-16T04:58:41;100608.03;;;15.07;93.28
67931;BME280;63902;52.000;5.954;2023-07-16T04:59:42;100607.66;;;15.13;92.14
67931;BME280;63902;52.000;5.954;2023-07-16T05:00:42;100601.91;;;15.19;91.67
67931;BME280;63902;52.000;5.954;2023-07-16T05:01:43;100611.25;;;15.26;91.33
67931;BME280;63902;52.000;5.954;2023-07-16T05:02:45;100606.66;;;15.28;90.75
67931;BME280;63902;52.000;5.954;2023-07-16T05:03:45;100612.78;;;15.30;91.15
67931;BME280;63902;52.000;5.954;2023-07-16T05:04:46;100612.88;;;15.29;91.29
67931;BME280;63902;52.000;5.954;2023-07-16T05:05:46;100612.00;;;15.28;90.89
67931;BME280;63902;52.000;5.954;2023-07-16T05:06:47;100615.84;;;15.24;91.34
67931;BME280;63902;52.000;5.954;2023-07-16T05:07:47;100616.78;;;15.23;91.60
67931;BME280;63902;52.000;5.954;2023-07-16T05:08:48;100614.22;;;15.21;90.91
67931;BME280;63902;52.000;5.954;2023-07-16T05:09:48;100617.75;;;15.22;90.98
67931;BME280;63902;52.000;5.954;2023-07-16T05:10:49;100627.59;;;15.21;90.95
67931;BME280;63902;52.000;5.954;2023-07-16T05:11:50;100621.59;;;15.18;91.31
67931;BME280;63902;52.000;5.954;2023-07-16T05:12:50;100624.44;;;15.15;91.38
67931;BME280;63902;52.000;5.954;2023-07-16T05:13:51;100619.19;;;15.13;91.09
67931;BME280;63902;52.000;5.954;2023-07-16T05:14:51;100630.09;;;15.10;90.95
67931;BME280;63902;52.000;5.954;2023-07-16T05:15:52;100627.41;;;15.10;90.67
67931;BME280;63902;52.000;5.954;2023-07-16T05:16:52;100623.88;;;15.10;91.19
67931;BME280;63902;52.000;5.954;2023-07-16T05:17:54;100631.13;;;15.08;90.62
67931;BME280;63902;52.000;5.954;2023-07-16T05:18:55;100630.34;;;15.06;90.55
67931;BME280;63902;52.000;5.954;2023-07-16T05:19:55;100634.72;;;15.07;90.79